sensor_id;sensor_type;location;lat;lon;timestamp;pressure;altitude;pressure_sealevel;temperature;humidity
498;BME280;39559;48.630;9.162;2022-08-30T00:00:39;97687.16;;;13.63;100.00
498;BME280;39559;48.630;9.162;2022-08-30T00:03:23;97688.06;;;13.62;100.00
498;BME280;39559;48.630;9.162;2022-08-30T00:05:49;97688.81;;;13.64;100.00
498;BME280;39559;48.630;9.162;2022-08-30T00:08:15;97689.97;;;13.58;100.00
498;BME280;39559;48.630;9.162;2022-08-30T00:10:42;97689.47;;;13.52;100.00
498;BME280;39559;48.630;9.162;2022-08-30T00:13:08;97688.59;;;13.51;100.00
498;BME280;39559;48.630;9.162;2022-08-30T00:15:37;97678.84;;;13.55;100.00
498;BME280;39559;48.630;9.162;2022-08-30T00:18:03;97685.63;;;13.59;100.00
498;BME280;39559;48.630;9.162;2022-08-30T00:20:31;97693.59;;;13.56;100.00
498;BME280;39559;48.630;9.162;2022-08-30T00:24:35;97686.06;;;13.50;100.00
498;BME280;39559;48.630;9.162;2022-08-30T00:27:02;97689.94;;;13.42;100.00
498;BME280;39559;48.630;9.162;2022-08-30T00:29:27;97690.25;;;13.36;100.00
498;BME280;39559;48.630;9.162;2022-08-30T00:31:53;97682.34;;;13.38;100.00
498;BME280;39559;48.630;9.162;2022-08-30T00:34:18;97694.13;;;13.28;100.00
498;BME280;39559;48.630;9.162;2022-08-30T00:36:44;97690.38;;;13.33;100.00
498;BME280;39559;48.630;9.162;2022-08-30T00:39:10;97690.25;;;13.36;100.00
498;BME280;39559;48.630;9.162;2022-08-30T00:41:36;97689.84;;;13.27;100.00
498;BME280;39559;48.630;9.162;2022-08-30T00:44:02;97689.97;;;13.23;100.00
498;BME280;39559;48.630;9.162;2022-08-30T00:48:31;97692.84;;;13.19;100.00
498;BME280;39559;48.630;9.162;2022-08-30T00:51:01;97694.66;;;13.17;100.00
498;BME280;39559;48.630;9.162;2022-08-30T00:53:31;97696.91;;;13.24;100.00
498;BME280;39559;48.630;9.162;2022-08-30T00:55:59;97695.06;;;13.27;100.00
498;BME280;39559;48.630;9.162;2022-08-30T00:58:30;97692.16;;;13.15;100.00
498;BME280;39559;48.630;9.162;2022-08-30T01:00:58;97694.13;;;13.10;100.00
498;BME280;39559;48.630;9.162;2022-08-30T01:03:25;97702.84;;;13.09;100.00
498;BME280;39559;48.630;9.162;2022-08-30T01:05:52;97697.44;;;13.14;100.00
498;BME280;39559;48.630;9.162;2022-08-30T01:08:20;97703.47;;;13.14;100.00
498;BME280;39559;48.630;9.162;2022-08-30T01:12:28;97699.72;;;13.02;100.00
498;BME280;39559;48.630;9.162;2022-08-30T01:14:55;97696.31;;;13.00;100.00
498;BME280;39559;48.630;9.162;2022-08-30T01:17:21;97697.19;;;13.01;100.00
498;BME280;39559;48.630;9.162;2022-08-30T01:19:52;97702.16;;;13.05;100.00
498;BME280;39559;48.630;9.162;2022-08-30T01:22:59;97700.19;;;13.11;100.00
498;BME280;39559;48.630;9.162;2022-08-30T01:25:24;97693.19;;;12.94;100.00
498;BME280;39559;48.630;9.162;2022-08-30T01:27:58;97695.88;;;12.92;100.00
498;BME280;39559;48.630;9.162;2022-08-30T01:30:27;97698.69;;;12.87;100.00
498;BME280;39559;48.630;9.162;2022-08-30T01:32:57;97695.38;;;12.84;100.00
498;BME280;39559;48.630;9.162;2022-08-30T01:36:26;97704.97;;;12.83;100.00
498;BME280;39559;48.630;9.162;2022-08-30T01:38:56;97699.13;;;12.78;100.00
498;BME280;39559;48.630;9.162;2022-08-30T01:41:23;97693.22;;;12.75;100.00
498;BME280;39559;48.630;9.162;2022-08-30T01:43:52;97693.09;;;12.78;100.00
498;BME280;39559;48.630;9.162;2022-08-30T01:46:19;97708.16;;;12.71;100.00
498;BME280;39559;48.630;9.162;2022-08-30T01:48:45;97709.16;;;12.68;100.00
498;BME280;39559;48.630;9.162;2022-08-30T01:51:12;97705.78;;;12.66;100.00
498;BME280;39559;48.630;9.162;2022-08-30T01:53:40;97705.03;;;12.64;100.00
498;BME280;39559;48.630;9.162;2022-08-30T01:56:07;97702.41;;;12.64;100.00
498;BME280;39559;48.630;9.162;2022-08-30T02:00:21;97702.56;;;12.61;100.00
498;BME280;39559;48.630;9.162;2022-08-30T02:02:47;97713.34;;;12.54;100.00
498;BME280;39559;48.630;9.162;2022-08-30T02:05:13;97700.38;;;12.52;100.00
498;BME280;39559;48.630;9.162;2022-08-30T02:07:38;97696.94;;;12.52;100.00
498;BME280;39559;48.630;9.162;2022-08-30T02:10:04;97696.78;;;12.55;100.00
498;BME280;39559;48.630;9.162;2022-08-30T02:12:30;97697.72;;;12.54;100.00
498;BME280;39559;48.630;9.162;2022-08-30T02:14:56;97695.09;;;12.54;100.00
498;BME280;39559;48.630;9.162;2022-08-30T02:17:22;97700.25;;;12.55;100.00
498;BME280;39559;48.630;9.162;2022-08-30T02:19:48;97705.66;;;12.51;100.00
498;BME280;39559;48.630;9.162;2022-08-30T02:24:17;97699.75;;;12.47;100.00
498;BME280;39559;48.630;9.162;2022-08-30T02:26:43;97697.22;;;12.45;100.00
498;BME280;39559;48.630;9.162;2022-08-30T02:29:09;97702.56;;;12.42;100.00
498;BME280;39559;48.630;9.162;2022-08-30T02:31:34;97702.00;;;12.36;100.00
498;BME280;39559;48.630;9.162;2022-08-30T02:34:00;97699.69;;;12.29;100.00
498;BME280;39559;48.630;9.162;2022-08-30T02:36:26;97705.75;;;12.30;100.00
498;BME280;39559;48.630;9.162;2022-08-30T02:38:52;97696.03;;;12.34;100.00
498;BME280;39559;48.630;9.162;2022-08-30T02:41:19;97698.66;;;12.34;100.00
498;BME280;39559;48.630;9.162;2022-08-30T02:43:45;97696.22;;;12.29;100.00
498;BME280;39559;48.630;9.162;2022-08-30T02:48:14;97688.16;;;12.35;100.00
498;BME280;39559;48.630;9.162;2022-08-30T02:50:42;97699.41;;;12.36;100.00
498;BME280;39559;48.630;9.162;2022-08-30T02:53:07;97692.50;;;12.35;100.00
498;BME280;39559;48.630;9.162;2022-08-30T02:55:33;97691.03;;;12.29;100.00
498;BME280;39559;48.630;9.162;2022-08-30T02:57:59;97678.13;;;12.26;100.00
498;BME280;39559;48.630;9.162;2022-08-30T03:00:24;97680.75;;;12.26;100.00
498;BME280;39559;48.630;9.162;2022-08-30T03:02:50;97677.94;;;12.31;100.00
498;BME280;39559;48.630;9.162;2022-08-30T03:05:16;97682.31;;;12.11;100.00
498;BME280;39559;48.630;9.162;2022-08-30T03:07:43;97685.13;;;12.06;100.00
498;BME280;39559;48.630;9.162;2022-08-30T03:12:11;97684.25;;;12.06;100.00
498;BME280;39559;48.630;9.162;2022-08-30T03:14:38;97673.50;;;11.95;100.00
498;BME280;39559;48.630;9.162;2022-08-30T03:17:06;97676.81;;;11.98;100.00
498;BME280;39559;48.630;9.162;2022-08-30T03:19:43;97669.28;;;11.92;100.00
498;BME280;39559;48.630;9.162;2022-08-30T03:22:12;97669.44;;;11.87;100.00
498;BME280;39559;48.630;9.162;2022-08-30T03:24:38;97667.00;;;11.84;100.00
498;BME280;39559;48.630;9.162;2022-08-30T03:27:05;97669.34;;;11.90;100.00
498;BME280;39559;48.630;9.162;2022-08-30T03:29:31;97666.47;;;11.97;100.00
498;BME280;39559;48.630;9.162;2022-08-30T03:31:57;97666.78;;;11.89;100.00
498;BME280;39559;48.630;9.162;2022-08-30T03:36:08;97658.34;;;11.84;100.00
498;BME280;39559;48.630;9.162;2022-08-30T03:38:34;97661.16;;;11.79;100.00
498;BME280;39559;48.630;9.162;2022-08-30T03:40:59;97667.19;;;11.80;100.00
498;BME280;39559;48.630;9.162;2022-08-30T03:43:25;97667.25;;;11.78;100.00
498;BME280;39559;48.630;9.162;2022-08-30T03:45:51;97662.06;;;11.78;100.00
498;BME280;39559;48.630;9.162;2022-08-30T03:48:18;97672.91;;;11.88;100.00
498;BME280;39559;48.630;9.162;2022-08-30T03:50:45;97672.06;;;11.87;100.00
498;BME280;39559;48.630;9.162;2022-08-30T03:53:12;97670.19;;;11.91;100.00
498;BME280;39559;48.630;9.162;2022-08-30T03:55:38;97668.63;;;11.87;100.00
498;BME280;39559;48.630;9.162;2022-08-30T04:00:06;97655.09;;;11.79;100.00
498;BME280;39559;48.630;9.162;2022-08-30T04:02:31;97658.03;;;11.71;100.00
498;BME280;39559;48.630;9.162;2022-08-30T04:04:57;97659.63;;;11.75;100.00
498;BME280;39559;48.630;9.162;2022-08-30T04:07:23;97657.78;;;11.77;100.00
498;BME280;39559;48.630;9.162;2022-08-30T04:09:48;97658.56;;;11.79;100.00
498;BME280;39559;48.630;9.162;2022-08-30T04:12:14;97652.00;;;11.70;100.00
498;BME280;39559;48.630;9.162;2022-08-30T04:14:39;97658.44;;;11.62;100.00
498;BME280;39559;48.630;9.162;2022-08-30T04:17:05;97668.19;;;11.57;100.00
498;BME280;39559;48.630;9.162;2022-08-30T04:19:31;97663.22;;;11.52;100.00
498;BME280;39559;48.630;9.162;2022-08-30T04:24:02;97674.84;;;11.43;100.00
498;BME280;39559;48.630;9.162;2022-08-30T04:26:28;97668.88;;;11.41;100.00
498;BME280;39559;48.630;9.162;2022-08-30T04:28:54;97676.47;;;11.46;100.00
498;BME280;39559;48.630;9.162;2022-08-30T04:31:20;97667.13;;;11.42;100.00
498;BME280;39559;48.630;9.162;2022-08-30T04:33:46;97670.66;;;11.41;100.00
498;BME280;39559;48.630;9.162;2022-08-30T04:36:12;97676.81;;;11.38;100.00
498;BME280;39559;48.630;9.162;2022-08-30T04:38:39;97678.94;;;11.49;100.00
498;BME280;39559;48.630;9.162;2022-08-30T04:41:15;97682.19;;;11.54;100.00
498;BME280;39559;48.630;9.162;2022-08-30T04:43:46;97681.47;;;11.50;100.00
498;BME280;39559;48.630;9.162;2022-08-30T04:47:59;97691.75;;;11.53;100.00
498;BME280;39559;48.630;9.162;2022-08-30T04:50:25;97699.63;;;11.52;100.00
498;BME280;39559;48.630;9.162;2022-08-30T04:52:51;97699.03;;;11.45;100.00
498;BME280;39559;48.630;9.162;2022-08-30T04:55:16;97694.75;;;11.44;100.00
498;BME280;39559;48.630;9.162;2022-08-30T04:57:42;97699.03;;;11.45;100.00
498;BME280;39559;48.630;9.162;2022-08-30T05:00:10;97703.06;;;11.52;100.00
498;BME280;39559;48.630;9.162;2022-08-30T05:02:38;97701.41;;;11.51;100.00
498;BME280;39559;48.630;9.162;2022-08-30T05:05:04;97702.28;;;11.50;100.00
498;BME280;39559;48.630;9.162;2022-08-30T05:07:49;97704.44;;;11.41;100.00
498;BME280;39559;48.630;9.162;2022-08-30T05:11:56;97709.06;;;11.34;100.00
498;BME280;39559;48.630;9.162;2022-08-30T05:14:22;97718.47;;;11.37;100.00
498;BME280;39559;48.630;9.162;2022-08-30T05:16:48;97719.00;;;11.45;100.00
498;BME280;39559;48.630;9.162;2022-08-30T05:19:14;97727.19;;;11.56;100.00
498;BME280;39559;48.630;9.162;2022-08-30T05:21:39;97727.00;;;11.61;100.00
498;BME280;39559;48.630;9.162;2022-08-30T05:24:05;97723.22;;;11.68;100.00
498;BME280;39559;48.630;9.162;2022-08-30T05:26:33;97727.63;;;11.66;100.00
498;BME280;39559;48.630;9.162;2022-08-30T05:28:59;97722.94;;;11.74;100.00
498;BME280;39559;48.630;9.162;2022-08-30T05:31:27;97736.41;;;11.63;100.00
498;BME280;39559;48.630;9.162;2022-08-30T05:35:54;97724.50;;;11.78;100.00
498;BME280;39559;48.630;9.162;2022-08-30T05:38:19;97724.38;;;11.81;100.00
498;BME280;39559;48.630;9.162;2022-08-30T05:40:45;97723.38;;;11.84;100.00
498;BME280;39559;48.630;9.162;2022-08-30T05:43:11;97717.91;;;11.92;100.00
498;BME280;39559;48.630;9.162;2022-08-30T05:45:38;97713.06;;;12.03;100.00
498;BME280;39559;48.630;9.162;2022-08-30T05:48:04;97709.19;;;12.12;100.00
498;BME280;39559;48.630;9.162;2022-08-30T05:50:29;97705.53;;;12.16;100.00
498;BME280;39559;48.630;9.162;2022-08-30T05:52:55;97708.06;;;12.17;100.00
498;BME280;39559;48.630;9.162;2022-08-30T05:55:21;97700.31;;;12.16;100.00
498;BME280;39559;48.630;9.162;2022-08-30T05:59:51;97690.19;;;12.28;100.00
498;BME280;39559;48.630;9.162;2022-08-30T06:02:17;97695.09;;;12.35;100.00
498;BME280;39559;48.630;9.162;2022-08-30T06:04:43;97699.19;;;12.40;100.00
498;BME280;39559;48.630;9.162;2022-08-30T06:07:08;97706.16;;;12.40;100.00
498;BME280;39559;48.630;9.162;2022-08-30T06:09:34;97701.59;;;12.45;100.00
498;BME280;39559;48.630;9.162;2022-08-30T06:12:00;97708.06;;;12.55;100.00
498;BME280;39559;48.630;9.162;2022-08-30T06:14:26;97716.84;;;12.72;100.00
498;BME280;39559;48.630;9.162;2022-08-30T06:16:51;97716.53;;;12.78;100.00
498;BME280;39559;48.630;9.162;2022-08-30T06:19:18;97712.91;;;12.99;100.00
498;BME280;39559;48.630;9.162;2022-08-30T06:23:49;97715.47;;;13.53;100.00
498;BME280;39559;48.630;9.162;2022-08-30T06:26:15;97713.72;;;13.54;100.00
498;BME280;39559;48.630;9.162;2022-08-30T06:28:40;97710.03;;;13.58;100.00
498;BME280;39559;48.630;9.162;2022-08-30T06:31:08;97711.72;;;13.59;100.00
498;BME280;39559;48.630;9.162;2022-08-30T06:33:34;97716.63;;;13.65;100.00
498;BME280;39559;48.630;9.162;2022-08-30T06:36:04;97707.69;;;13.69;100.00
498;BME280;39559;48.630;9.162;2022-08-30T06:38:31;97714.97;;;13.80;100.00
498;BME280;39559;48.630;9.162;2022-08-30T06:40:57;97709.28;;;13.89;100.00
498;BME280;39559;48.630;9.162;2022-08-30T06:43:23;97711.66;;;13.94;100.00
498;BME280;39559;48.630;9.162;2022-08-30T06:47:47;97704.72;;;14.26;100.00
498;BME280;39559;48.630;9.162;2022-08-30T06:50:15;97702.97;;;14.43;100.00
498;BME280;39559;48.630;9.162;2022-08-30T06:52:42;97701.22;;;14.59;100.00
498;BME280;39559;48.630;9.162;2022-08-30T06:55:10;97704.50;;;14.63;100.00
498;BME280;39559;48.630;9.162;2022-08-30T06:57:36;97698.25;;;14.81;100.00
498;BME280;39559;48.630;9.162;2022-08-30T07:00:07;97703.88;;;14.89;100.00
498;BME280;39559;48.630;9.162;2022-08-30T07:02:36;97704.28;;;14.97;100.00
498;BME280;39559;48.630;9.162;2022-08-30T07:05:03;97712.59;;;15.20;100.00
498;BME280;39559;48.630;9.162;2022-08-30T07:07:29;97705.72;;;15.33;100.00
498;BME280;39559;48.630;9.162;2022-08-30T07:11:44;97702.09;;;15.50;100.00
498;BME280;39559;48.630;9.162;2022-08-30T07:14:09;97702.97;;;15.65;100.00
498;BME280;39559;48.630;9.162;2022-08-30T07:16:35;97705.97;;;15.73;100.00
498;BME280;39559;48.630;9.162;2022-08-30T07:19:04;97701.97;;;15.82;100.00
498;BME280;39559;48.630;9.162;2022-08-30T07:21:36;97697.69;;;16.10;100.00
498;BME280;39559;48.630;9.162;2022-08-30T07:24:03;97698.84;;;16.47;100.00
498;BME280;39559;48.630;9.162;2022-08-30T07:26:44;97698.47;;;16.54;100.00
498;BME280;39559;48.630;9.162;2022-08-30T07:29:14;97695.50;;;16.87;100.00
498;BME280;39559;48.630;9.162;2022-08-30T07:31:40;97701.75;;;16.84;100.00
498;BME280;39559;48.630;9.162;2022-08-30T07:35:41;97702.94;;;17.20;100.00
498;BME280;39559;48.630;9.162;2022-08-30T07:38:12;97697.94;;;17.30;100.00
498;BME280;39559;48.630;9.162;2022-08-30T07:40:38;97703.63;;;17.50;100.00
498;BME280;39559;48.630;9.162;2022-08-30T07:43:04;97705.00;;;17.68;100.00
498;BME280;39559;48.630;9.162;2022-08-30T07:45:30;97707.13;;;18.01;100.00
498;BME280;39559;48.630;9.162;2022-08-30T07:47:55;97708.06;;;18.00;100.00
498;BME280;39559;48.630;9.162;2022-08-30T07:50:22;97701.22;;;18.23;100.00
498;BME280;39559;48.630;9.162;2022-08-30T07:52:48;97702.75;;;18.39;100.00
498;BME280;39559;48.630;9.162;2022-08-30T07:55:13;97699.03;;;18.54;100.00
498;BME280;39559;48.630;9.162;2022-08-30T07:59:38;97705.03;;;18.80;100.00
498;BME280;39559;48.630;9.162;2022-08-30T08:02:04;97704.03;;;18.83;100.00
498;BME280;39559;48.630;9.162;2022-08-30T08:04:30;97705.56;;;19.10;100.00
498;BME280;39559;48.630;9.162;2022-08-30T08:06:55;97700.41;;;19.32;100.00
498;BME280;39559;48.630;9.162;2022-08-30T08:09:21;97705.84;;;19.53;100.00
498;BME280;39559;48.630;9.162;2022-08-30T08:11:47;97709.47;;;19.64;100.00
498;BME280;39559;48.630;9.162;2022-08-30T08:14:12;97708.78;;;19.84;100.00
498;BME280;39559;48.630;9.162;2022-08-30T08:16:38;97708.47;;;20.00;100.00
498;BME280;39559;48.630;9.162;2022-08-30T08:19:04;97708.13;;;20.16;100.00
498;BME280;39559;48.630;9.162;2022-08-30T08:23:36;97708.72;;;20.20;100.00
498;BME280;39559;48.630;9.162;2022-08-30T08:26:02;97711.44;;;20.41;100.00
498;BME280;39559;48.630;9.162;2022-08-30T08:28:28;97712.63;;;20.48;100.00
498;BME280;39559;48.630;9.162;2022-08-30T08:30:53;97704.25;;;20.43;100.00
498;BME280;39559;48.630;9.162;2022-08-30T08:33:19;97697.06;;;20.45;100.00
498;BME280;39559;48.630;9.162;2022-08-30T08:35:45;97705.34;;;20.40;100.00
498;BME280;39559;48.630;9.162;2022-08-30T08:38:11;97698.72;;;20.46;100.00
498;BME280;39559;48.630;9.162;2022-08-30T08:43:35;97692.28;;;20.61;99.66
498;BME280;39559;48.630;9.162;2022-08-30T08:47:56;97688.28;;;20.78;91.28
498;BME280;39559;48.630;9.162;2022-08-30T08:50:23;97690.38;;;20.96;94.90
498;BME280;39559;48.630;9.162;2022-08-30T08:52:56;97677.50;;;21.02;90.78
498;BME280;39559;48.630;9.162;2022-08-30T08:55:46;97685.34;;;21.25;92.56
498;BME280;39559;48.630;9.162;2022-08-30T08:58:31;97688.09;;;21.44;89.13
498;BME280;39559;48.630;9.162;2022-08-30T09:01:02;97688.34;;;21.53;87.74
498;BME280;39559;48.630;9.162;2022-08-30T09:03:28;97680.09;;;21.98;81.49
498;BME280;39559;48.630;9.162;2022-08-30T09:05:54;97677.34;;;21.78;84.27
498;BME280;39559;48.630;9.162;2022-08-30T09:08:21;97680.69;;;22.01;83.05
498;BME280;39559;48.630;9.162;2022-08-30T09:11:33;97677.22;;;22.11;82.73
498;BME280;39559;48.630;9.162;2022-08-30T09:13:59;97676.69;;;22.17;81.69
498;BME280;39559;48.630;9.162;2022-08-30T09:16:58;97672.78;;;22.52;80.70
498;BME280;39559;48.630;9.162;2022-08-30T09:19:45;97670.59;;;22.76;75.24
498;BME280;39559;48.630;9.162;2022-08-30T09:24:50;97668.00;;;23.06;75.53
498;BME280;39559;48.630;9.162;2022-08-30T09:27:31;97668.13;;;22.94;75.34
498;BME280;39559;48.630;9.162;2022-08-30T09:30:00;97660.47;;;23.30;75.46
498;BME280;39559;48.630;9.162;2022-08-30T09:35:36;97658.78;;;23.49;72.23
498;BME280;39559;48.630;9.162;2022-08-30T09:38:08;97656.81;;;23.51;70.62
498;BME280;39559;48.630;9.162;2022-08-30T09:48:40;97640.78;;;24.00;64.40
498;BME280;39559;48.630;9.162;2022-08-30T09:53:59;97637.72;;;23.94;71.15
498;BME280;39559;48.630;9.162;2022-08-30T09:59:40;97631.41;;;24.33;67.37
498;BME280;39559;48.630;9.162;2022-08-30T10:05:15;97622.81;;;24.39;67.26
498;BME280;39559;48.630;9.162;2022-08-30T10:15:50;97614.50;;;24.52;64.01
498;BME280;39559;48.630;9.162;2022-08-30T10:18:31;97599.84;;;24.58;64.43
498;BME280;39559;48.630;9.162;2022-08-30T10:23:25;97599.50;;;24.97;59.39
498;BME280;39559;48.630;9.162;2022-08-30T10:26:11;97604.84;;;25.41;62.42
498;BME280;39559;48.630;9.162;2022-08-30T10:28:53;97599.50;;;25.33;59.66
498;BME280;39559;48.630;9.162;2022-08-30T10:31:43;97592.22;;;25.43;61.08
498;BME280;39559;48.630;9.162;2022-08-30T10:34:17;97593.53;;;25.39;58.83
498;BME280;39559;48.630;9.162;2022-08-30T10:36:57;97584.38;;;25.33;58.07
498;BME280;39559;48.630;9.162;2022-08-30T10:39:30;97583.84;;;25.29;58.90
498;BME280;39559;48.630;9.162;2022-08-30T10:42:14;97579.81;;;25.78;56.97
498;BME280;39559;48.630;9.162;2022-08-30T10:47:33;97580.25;;;25.99;58.33
498;BME280;39559;48.630;9.162;2022-08-30T10:50:17;97587.66;;;25.88;54.01
498;BME280;39559;48.630;9.162;2022-08-30T10:55:32;97575.47;;;26.11;54.04
498;BME280;39559;48.630;9.162;2022-08-30T10:58:04;97582.69;;;26.27;50.30
498;BME280;39559;48.630;9.162;2022-08-30T11:01:09;97576.97;;;26.14;52.42
498;BME280;39559;48.630;9.162;2022-08-30T11:11:24;97577.75;;;26.49;51.07
498;BME280;39559;48.630;9.162;2022-08-30T11:13:52;97579.06;;;26.53;51.25
498;BME280;39559;48.630;9.162;2022-08-30T11:16:18;97587.56;;;26.56;50.98
498;BME280;39559;48.630;9.162;2022-08-30T11:18:51;97580.28;;;26.16;52.56
498;BME280;39559;48.630;9.162;2022-08-30T11:21:29;97576.69;;;26.25;53.54
498;BME280;39559;48.630;9.162;2022-08-30T11:23:59;97578.38;;;26.42;52.68
498;BME280;39559;48.630;9.162;2022-08-30T11:26:49;97580.63;;;26.64;53.14
498;BME280;39559;48.630;9.162;2022-08-30T11:29:36;97574.00;;;26.17;50.60
498;BME280;39559;48.630;9.162;2022-08-30T11:32:23;97577.59;;;25.99;54.84
498;BME280;39559;48.630;9.162;2022-08-30T11:35:08;97578.19;;;25.85;54.53
498;BME280;39559;48.630;9.162;2022-08-30T11:37:41;97575.84;;;26.16;51.52
498;BME280;39559;48.630;9.162;2022-08-30T11:42:46;97580.13;;;26.85;50.26
498;BME280;39559;48.630;9.162;2022-08-30T11:47:51;97575.47;;;27.11;49.60
498;BME280;39559;48.630;9.162;2022-08-30T11:56:06;97568.06;;;26.56;48.16
498;BME280;39559;48.630;9.162;2022-08-30T12:01:49;97575.88;;;26.41;51.17
498;BME280;39559;48.630;9.162;2022-08-30T12:09:08;97566.06;;;26.33;50.63
498;BME280;39559;48.630;9.162;2022-08-30T12:14:03;97562.38;;;26.18;49.66
498;BME280;39559;48.630;9.162;2022-08-30T12:16:42;97558.75;;;26.43;50.98
498;BME280;39559;48.630;9.162;2022-08-30T12:19:29;97565.63;;;26.95;48.79
498;BME280;39559;48.630;9.162;2022-08-30T12:23:14;97556.50;;;26.81;48.60
498;BME280;39559;48.630;9.162;2022-08-30T12:25:41;97545.78;;;27.23;47.86
498;BME280;39559;48.630;9.162;2022-08-30T12:28:14;97540.06;;;27.50;46.78
498;BME280;39559;48.630;9.162;2022-08-30T12:30:40;97539.63;;;27.86;46.89
498;BME280;39559;48.630;9.162;2022-08-30T12:33:10;97541.66;;;27.92;47.06
498;BME280;39559;48.630;9.162;2022-08-30T12:35:38;97535.47;;;27.28;46.96
498;BME280;39559;48.630;9.162;2022-08-30T12:38:13;97543.81;;;27.08;50.63
498;BME280;39559;48.630;9.162;2022-08-30T12:40:48;97549.16;;;26.75;46.06
498;BME280;39559;48.630;9.162;2022-08-30T12:43:32;97544.84;;;26.74;50.00
498;BME280;39559;48.630;9.162;2022-08-30T12:46:56;97536.47;;;26.53;52.17
498;BME280;39559;48.630;9.162;2022-08-30T12:49:25;97541.00;;;26.77;49.33
498;BME280;39559;48.630;9.162;2022-08-30T12:51:52;97543.66;;;26.77;49.42
498;BME280;39559;48.630;9.162;2022-08-30T12:54:22;97539.81;;;26.63;50.85
498;BME280;39559;48.630;9.162;2022-08-30T12:56:59;97530.66;;;26.74;50.45
498;BME280;39559;48.630;9.162;2022-08-30T12:59:52;97533.84;;;26.86;47.11
498;BME280;39559;48.630;9.162;2022-08-30T13:02:26;97528.50;;;27.02;47.05
498;BME280;39559;48.630;9.162;2022-08-30T13:04:53;97521.50;;;26.93;48.31
498;BME280;39559;48.630;9.162;2022-08-30T13:07:34;97519.84;;;26.75;51.32
498;BME280;39559;48.630;9.162;2022-08-30T13:13:44;97512.50;;;26.94;50.36
498;BME280;39559;48.630;9.162;2022-08-30T13:18:45;97506.16;;;27.03;49.28
498;BME280;39559;48.630;9.162;2022-08-30T13:21:31;97502.19;;;26.91;48.34
498;BME280;39559;48.630;9.162;2022-08-30T13:24:03;97500.88;;;26.62;52.54
498;BME280;39559;48.630;9.162;2022-08-30T13:26:31;97499.19;;;26.61;51.85
498;BME280;39559;48.630;9.162;2022-08-30T13:29:01;97493.50;;;26.56;50.26
498;BME280;39559;48.630;9.162;2022-08-30T13:31:28;97495.53;;;26.70;48.86
498;BME280;39559;48.630;9.162;2022-08-30T13:34:43;97490.16;;;26.13;50.79
498;BME280;39559;48.630;9.162;2022-08-30T13:37:13;97491.44;;;26.00;54.02
498;BME280;39559;48.630;9.162;2022-08-30T13:39:39;97486.13;;;26.09;51.90
498;BME280;39559;48.630;9.162;2022-08-30T13:42:05;97486.50;;;26.22;52.52
498;BME280;39559;48.630;9.162;2022-08-30T13:44:31;97485.31;;;26.16;54.76
498;BME280;39559;48.630;9.162;2022-08-30T13:46:58;97476.16;;;26.19;54.04
498;BME280;39559;48.630;9.162;2022-08-30T13:49:28;97474.84;;;26.23;50.50
498;BME280;39559;48.630;9.162;2022-08-30T13:51:54;97474.34;;;26.28;50.50
498;BME280;39559;48.630;9.162;2022-08-30T13:54:20;97468.22;;;26.27;52.44
498;BME280;39559;48.630;9.162;2022-08-30T13:58:35;97466.69;;;26.24;52.79
498;BME280;39559;48.630;9.162;2022-08-30T14:01:01;97464.88;;;26.25;50.70
498;BME280;39559;48.630;9.162;2022-08-30T14:03:26;97466.00;;;25.98;53.62
498;BME280;39559;48.630;9.162;2022-08-30T14:05:52;97457.50;;;26.02;51.29
498;BME280;39559;48.630;9.162;2022-08-30T14:08:26;97457.22;;;26.63;52.31
498;BME280;39559;48.630;9.162;2022-08-30T14:10:52;97447.75;;;26.60;47.64
498;BME280;39559;48.630;9.162;2022-08-30T14:13:18;97452.41;;;26.67;51.03
498;BME280;39559;48.630;9.162;2022-08-30T14:15:43;97452.75;;;26.80;49.63
498;BME280;39559;48.630;9.162;2022-08-30T14:18:09;97451.22;;;26.77;50.76
498;BME280;39559;48.630;9.162;2022-08-30T14:22:30;97442.09;;;26.72;49.04
498;BME280;39559;48.630;9.162;2022-08-30T14:24:56;97432.94;;;26.58;51.64
498;BME280;39559;48.630;9.162;2022-08-30T14:27:21;97442.56;;;26.84;48.65
498;BME280;39559;48.630;9.162;2022-08-30T14:29:47;97446.91;;;26.52;52.46
498;BME280;39559;48.630;9.162;2022-08-30T14:32:13;97453.53;;;26.56;49.25
498;BME280;39559;48.630;9.162;2022-08-30T14:34:39;97441.56;;;26.60;50.59
498;BME280;39559;48.630;9.162;2022-08-30T14:37:04;97443.91;;;26.63;49.23
498;BME280;39559;48.630;9.162;2022-08-30T14:39:31;97446.22;;;26.83;51.85
498;BME280;39559;48.630;9.162;2022-08-30T14:41:56;97445.06;;;26.85;49.23
498;BME280;39559;48.630;9.162;2022-08-30T14:46:24;97435.22;;;26.94;49.52
498;BME280;39559;48.630;9.162;2022-08-30T14:48:52;97438.72;;;26.94;48.73
498;BME280;39559;48.630;9.162;2022-08-30T14:51:19;97435.84;;;27.12;47.74
498;BME280;39559;48.630;9.162;2022-08-30T14:53:46;97433.19;;;27.04;45.08
498;BME280;39559;48.630;9.162;2022-08-30T14:56:16;97437.88;;;26.94;48.65
498;BME280;39559;48.630;9.162;2022-08-30T14:58:43;97433.34;;;27.11;47.06
498;BME280;39559;48.630;9.162;2022-08-30T15:01:10;97421.00;;;27.10;48.83
498;BME280;39559;48.630;9.162;2022-08-30T15:03:37;97423.50;;;27.11;49.45
498;BME280;39559;48.630;9.162;2022-08-30T15:06:04;97419.63;;;27.30;48.02
498;BME280;39559;48.630;9.162;2022-08-30T15:10:19;97425.84;;;27.06;46.56
498;BME280;39559;48.630;9.162;2022-08-30T15:12:50;97428.34;;;27.08;47.27
498;BME280;39559;48.630;9.162;2022-08-30T15:15:19;97427.88;;;27.04;49.63
498;BME280;39559;48.630;9.162;2022-08-30T15:17:49;97424.72;;;26.92;47.73
498;BME280;39559;48.630;9.162;2022-08-30T15:20:15;97416.44;;;26.79;46.38
498;BME280;39559;48.630;9.162;2022-08-30T15:22:45;97420.78;;;26.80;46.29
498;BME280;39559;48.630;9.162;2022-08-30T15:25:11;97416.25;;;26.80;47.39
498;BME280;39559;48.630;9.162;2022-08-30T15:27:37;97416.56;;;26.94;44.12
498;BME280;39559;48.630;9.162;2022-08-30T15:30:04;97413.75;;;26.79;44.48
498;BME280;39559;48.630;9.162;2022-08-30T15:34:14;97417.28;;;26.38;50.53